Time;durP1;ratioP1;P1;durP2;ratioP2;P2;SDS_P1;SDS_P2;PMS_P1;PMS_P2;Temp;Humidity;BMP_temperature;BMP_pressure;BME280_temperature;BME280_humidity;BME280_pressure;Samples;Min_cycle;Max_cycle;Signal;HPM_P1;HPM_P2
2024/01/24 00:00:13;;;;;;;3.75;1.52;;;;;;;20.23;42.29;101266.34;4921103;28;121400;-70
2024/01/24 00:02:38;;;;;;;2.88;1.20;;;;;;;20.22;42.59;101257.56;4926412;28;97573;-70
2024/01/24 00:05:04;;;;;;;3.90;1.92;;;;;;;20.22;42.41;101249.59;4926524;28;113055;-70
2024/01/24 00:07:31;;;;;;;3.45;1.60;;;;;;;20.24;42.61;101234.53;4909750;28;97280;-70
2024/01/24 00:09:56;;;;;;;3.47;1.08;;;;;;;20.23;42.75;101243.41;4908721;28;96700;-70
2024/01/24 00:12:22;;;;;;;2.75;1.13;;;;;;;20.23;42.38;101230.19;4924652;28;97043;-70
2024/01/24 00:14:47;;;;;;;3.53;0.95;;;;;;;20.24;42.67;101233.69;4924828;28;97761;-70
2024/01/24 00:17:12;;;;;;;4.00;1.02;;;;;;;20.23;42.68;101237.22;4906871;28;97210;-70
2024/01/24 00:19:38;;;;;;;5.57;1.63;;;;;;;20.23;42.69;101235.47;4925039;28;97125;-70
2024/01/24 00:22:03;;;;;;;2.85;1.10;;;;;;;20.23;42.49;101238.13;4928132;28;120542;-70
2024/01/24 00:24:29;;;;;;;2.83;1.35;;;;;;;20.24;42.63;101249.56;4912411;28;128420;-70
2024/01/24 00:26:54;;;;;;;2.58;1.15;;;;;;;20.24;42.86;101242.50;4930478;28;98435;-71
2024/01/24 00:29:19;;;;;;;3.17;1.30;;;;;;;20.24;42.52;101233.69;4909481;28;96870;-70
2024/01/24 00:31:47;;;;;;;3.35;1.52;;;;;;;20.24;42.44;101205.41;4922689;28;103602;-70
2024/01/24 00:34:12;;;;;;;3.45;1.60;;;;;;;20.24;42.51;101204.56;4924542;28;96893;-70
2024/01/24 00:36:37;;;;;;;3.30;1.60;;;;;;;20.23;42.74;101185.16;4929097;28;97132;-70
2024/01/24 00:39:03;;;;;;;3.28;1.52;;;;;;;20.24;42.65;101201.91;4928982;28;112831;-69
2024/01/24 00:41:28;;;;;;;2.70;1.30;;;;;;;20.24;42.41;101197.47;4930407;28;97323;-70
2024/01/24 00:43:54;;;;;;;2.60;1.15;;;;;;;20.24;42.87;101192.16;4930283;28;97353;-70
2024/01/24 00:46:19;;;;;;;2.55;1.20;;;;;;;20.24;42.89;101205.41;4929360;28;119162;-70
2024/01/24 00:48:45;;;;;;;2.40;0.98;;;;;;;20.24;42.87;101207.19;4928448;28;122041;-70
2024/01/24 00:51:10;;;;;;;2.97;1.23;;;;;;;20.25;42.77;101209.81;4910158;28;97559;-70
2024/01/24 00:53:37;;;;;;;2.92;1.27;;;;;;;20.25;42.68;101206.28;4928144;28;125683;-70
2024/01/24 00:56:03;;;;;;;3.65;1.30;;;;;;;20.24;42.95;101192.16;4929804;28;96771;-70
2024/01/24 00:58:28;;;;;;;2.53;0.93;;;;;;;20.25;42.75;101199.22;4922888;28;96894;-70
2024/01/24 01:00:54;;;;;;;2.30;1.20;;;;;;;20.25;42.65;101190.38;4922854;28;120896;-71
2024/01/24 01:03:19;;;;;;;2.75;1.15;;;;;;;20.25;42.48;101185.97;4927842;28;97712;-69
2024/01/24 01:05:44;;;;;;;2.78;0.98;;;;;;;20.25;42.72;101180.69;4911441;28;126636;-70
2024/01/24 01:08:10;;;;;;;2.90;1.10;;;;;;;20.26;42.66;101174.47;4929981;28;97410;-70
2024/01/24 01:10:35;;;;;;;3.17;0.77;;;;;;;20.26;42.51;101186.84;4929926;28;97403;-70
2024/01/24 01:13:01;;;;;;;2.78;1.00;;;;;;;20.26;42.65;101185.06;4928596;28;127402;-70
2024/01/24 01:15:26;;;;;;;1.85;1.30;;;;;;;20.26;42.56;101198.31;4929790;28;97233;-70
2024/01/24 01:17:51;;;;;;;2.33;1.30;;;;;;;20.27;42.79;101185.94;4930342;28;97898;-70
2024/01/24 01:20:20;;;;;;;3.10;1.48;;;;;;;20.27;42.71;101185.94;4930445;28;96884;-70
2024/01/24 01:22:46;;;;;;;3.85;1.50;;;;;;;20.26;42.87;101185.06;4928678;28;96797;-70
2024/01/24 01:25:11;;;;;;;2.05;1.20;;;;;;;20.28;42.70;101185.88;4924239;28;99776;-70
2024/01/24 01:27:37;;;;;;;3.25;1.02;;;;;;;20.28;43.00;101185.03;4928553;28;96757;-70
2024/01/24 01:30:03;;;;;;;3.03;0.93;;;;;;;20.28;42.62;101195.63;4923803;28;96764;-70
2024/01/24 01:32:29;;;;;;;2.10;1.27;;;;;;;20.28;42.58;101196.47;4927738;28;96816;-70
2024/01/24 01:34:54;;;;;;;3.17;1.10;;;;;;;20.28;42.86;101191.19;4924143;28;97510;-70
2024/01/24 01:37:23;;;;;;;2.58;1.25;;;;;;;20.28;43.03;101180.59;4927311;28;97325;-70
2024/01/24 01:39:51;;;;;;;2.38;0.82;;;;;;;20.28;42.85;101192.97;4928682;28;96986;-70
2024/01/24 01:42:17;;;;;;;2.50;1.40;;;;;;;20.28;42.73;101200.91;4908133;28;100476;-70
2024/01/24 01:44:46;;;;;;;2.42;1.50;;;;;;;20.28;42.65;101188.53;4927936;28;97252;-70
2024/01/24 01:47:16;;;;;;;2.03;1.40;;;;;;;20.28;42.66;101198.28;4918020;28;97165;-70
2024/01/24 01:49:45;;;;;;;2.67;1.70;;;;;;;20.28;42.76;101203.56;4923315;28;96911;-71
2024/01/24 01:52:11;;;;;;;;;;;;;;;20.22;42.97;101203.72;4928701;28;97713;-70
2024/01/24 01:54:38;;;;;;;2.85;1.20;;;;;;;20.22;43.20;101215.19;4928630;28;96922;-70
2024/01/24 01:57:05;;;;;;;1.75;0.95;;;;;;;20.26;43.06;101206.25;4928464;28;96661;-70
2024/01/24 01:59:32;;;;;;;2.05;0.82;;;;;;;20.27;42.66;101207.13;4924726;28;96905;-70
2024/01/24 02:02:00;;;;;;;2.63;1.20;;;;;;;20.27;42.79;101208.00;4928253;28;96825;-70
2024/01/24 02:04:26;;;;;;;2.58;1.15;;;;;;;20.28;42.96;101204.44;4928297;28;97226;-70
2024/01/24 02:06:52;;;;;;;2.08;0.88;;;;;;;20.28;42.89;101196.47;4910915;28;96981;-70
2024/01/24 02:09:17;;;;;;;2.45;0.77;;;;;;;20.28;42.86;101185.03;4928657;28;96993;-70
2024/01/24 02:11:42;;;;;;;2.03;0.75;;;;;;;20.29;43.16;101187.66;4927635;28;109722;-70
2024/01/24 02:14:08;;;;;;;2.10;1.35;;;;;;;20.30;43.09;101185.84;4928351;28;117261;-70
2024/01/24 02:16:34;;;;;;;2.08;1.10;;;;;;;20.29;43.12;101185.00;4909466;28;96933;-70
2024/01/24 02:18:59;;;;;;;1.98;1.15;;;;;;;20.29;43.29;101186.78;4928357;28;96758;-70
2024/01/24 02:21:24;;;;;;;1.90;0.68;;;;;;;20.29;43.12;101192.94;4925734;28;112424;-70
2024/01/24 02:23:50;;;;;;;1.73;0.90;;;;;;;20.30;43.15;101191.16;4915309;28;126823;-70
2024/01/24 02:26:16;;;;;;;1.77;1.08;;;;;;;20.30;42.79;101186.75;4908483;28;96716;-70
2024/01/24 02:28:41;;;;;;;2.08;0.80;;;;;;;20.31;42.74;101188.47;4923677;28;97053;-70
2024/01/24 02:31:06;;;;;;;1.63;0.90;;;;;;;20.30;43.16;101184.09;4910048;28;125248;-70
2024/01/24 02:33:32;;;;;;;1.70;1.13;;;;;;;20.31;43.02;101192.91;4924111;28;96746;-70
2024/01/24 02:35:58;;;;;;;2.38;0.98;;;;;;;20.31;43.12;101182.31;4924247;28;96817;-70
2024/01/24 02:38:23;;;;;;;1.95;0.70;;;;;;;20.31;42.91;101167.28;4924520;28;96864;-70
2024/01/24 02:40:49;;;;;;;1.15;0.65;;;;;;;20.32;43.08;101173.44;4928606;28;96821;-70
2024/01/24 02:43:14;;;;;;;2.63;1.15;;;;;;;20.32;42.89;101181.38;4927190;28;126609;-70
2024/01/24 02:45:40;;;;;;;1.73;0.95;;;;;;;20.32;42.92;101186.69;4928495;28;96790;-70
2024/01/24 02:48:05;;;;;;;1.63;0.68;;;;;;;20.32;42.96;101189.34;4928104;28;97187;-70
2024/01/24 02:50:31;;;;;;;1.73;1.10;;;;;;;20.32;43.14;101184.03;4910578;28;99541;-70
2024/01/24 02:52:56;;;;;;;2.42;0.93;;;;;;;20.32;43.23;101189.34;4910252;28;124011;-70
2024/01/24 02:55:21;;;;;;;2.25;0.95;;;;;;;20.32;42.95;101184.94;4909682;28;96951;-70
2024/01/24 02:57:47;;;;;;;2.47;1.08;;;;;;;20.32;43.02;101208.78;4926478;28;120479;-70
2024/01/24 03:00:13;;;;;;;2.00;0.90;;;;;;;20.33;43.28;101191.97;4909714;28;97593;-70
2024/01/24 03:02:39;;;;;;;0.68;0.47;;;;;;;20.32;43.15;101179.63;4922299;28;97283;-70
2024/01/24 03:05:06;;;;;;;1.85;0.65;;;;;;;20.33;43.17;101176.06;4928005;28;96769;-70
2024/01/24 03:07:31;;;;;;;2.72;0.98;;;;;;;20.32;43.14;101184.94;4907837;28;97121;-69
2024/01/24 03:09:57;;;;;;;1.70;0.70;;;;;;;20.33;43.31;101176.06;4927598;28;96757;-70
2024/01/24 03:12:22;;;;;;;1.45;0.52;;;;;;;20.33;43.29;101186.66;4909884;28;103833;-70
2024/01/24 03:14:47;;;;;;;2.25;1.00;;;;;;;20.33;43.07;101201.69;4910552;28;96793;-70
2024/01/24 03:17:13;;;;;;;2.00;1.90;;;;;;;20.33;42.84;101196.41;4910576;28;97331;-70
2024/01/24 03:19:38;;;;;;;1.85;0.68;;;;;;;20.33;43.21;101199.03;4905533;28;113167;-70
2024/01/24 03:22:04;;;;;;;1.70;1.05;;;;;;;20.34;43.06;101198.16;4904371;28;96722;-70
2024/01/24 03:24:29;;;;;;;1.60;1.00;;;;;;;20.34;43.28;101198.16;4927349;28;122466;-70
2024/01/24 03:26:55;;;;;;;1.77;1.02;;;;;;;20.34;42.90;101217.56;4910454;28;96952;-70
2024/01/24 03:29:20;;;;;;;1.60;0.77;;;;;;;20.33;43.19;101231.69;4927686;28;97494;-70
2024/01/24 03:31:46;;;;;;;2.05;0.80;;;;;;;20.34;43.15;101222.00;4909019;28;97294;-70
2024/01/24 03:34:12;;;;;;;2.83;1.30;;;;;;;20.34;42.87;101243.19;4907711;28;96963;-70
2024/01/24 03:36:37;;;;;;;1.95;1.20;;;;;;;20.35;43.09;101234.31;4926128;28;97270;-70
2024/01/24 03:39:03;;;;;;;1.92;0.75;;;;;;;20.35;43.06;101244.91;4926795;28;99067;-70
2024/01/24 03:41:29;;;;;;;0.93;0.57;;;;;;;20.34;43.23;101262.59;4923781;28;97210;-70
2024/01/24 03:43:55;;;;;;;1.77;0.82;;;;;;;20.35;43.41;101252.84;4927633;28;96744;-70
2024/01/24 03:46:21;;;;;;;1.52;1.08;;;;;;;20.34;43.24;101265.25;4909609;28;97002;-70
2024/01/24 03:48:47;;;;;;;1.80;1.10;;;;;;;20.35;43.19;101253.72;4907938;28;97547;-70
2024/01/24 03:51:12;;;;;;;1.45;1.00;;;;;;;20.35;43.29;101243.13;4909861;28;97565;-70
2024/01/24 03:53:38;;;;;;;1.42;1.15;;;;;;;20.36;42.99;101262.56;4910177;28;97375;-70
2024/01/24 03:56:03;;;;;;;1.30;0.52;;;;;;;20.36;43.09;101251.97;4909906;28;119709;-70
2024/01/24 03:58:29;;;;;;;1.48;1.05;;;;;;;20.37;43.08;101266.06;4896464;28;96874;-69
2024/01/24 04:00:57;;;;;;;1.55;1.15;;;;;;;20.37;43.22;101280.19;4912748;28;99146;-70
2024/01/24 04:03:22;;;;;;;1.42;1.10;;;;;;;20.36;43.14;101267.88;4912694;28;96779;-70
2024/01/24 04:05:48;;;;;;;2.08;1.13;;;;;;;20.36;43.23;101281.09;4928856;28;96883;-70
2024/01/24 04:08:16;;;;;;;2.95;0.88;;;;;;;20.36;43.13;101270.50;4912224;28;127623;-70
2024/01/24 04:10:41;;;;;;;1.45;1.00;;;;;;;20.36;43.35;101259.91;4912147;28;97005;-70
2024/01/24 04:13:07;;;;;;;1.02;0.65;;;;;;;20.36;43.22;101230.78;4897288;28;102493;-70
2024/01/24 04:15:32;;;;;;;1.33;0.95;;;;;;;20.37;43.15;101229.84;4919258;28;119370;-70
2024/01/24 04:17:58;;;;;;;1.67;1.08;;;;;;;20.38;43.26;101241.34;4923665;28;97080;-70
2024/01/24 04:20:23;;;;;;;1.65;1.13;;;;;;;20.37;43.40;101251.03;4913029;28;97221;-70
2024/01/24 04:22:48;;;;;;;0.93;0.43;;;;;;;20.37;43.36;101264.28;4917953;28;122501;-70
2024/01/24 04:25:14;;;;;;;1.67;0.52;;;;;;;20.38;43.31;101271.34;4913032;28;97485;-70
2024/01/24 04:27:39;;;;;;;0.60;0.50;;;;;;;20.37;43.40;101288.13;4929287;28;97413;-69
2024/01/24 04:30:05;;;;;;;1.48;0.60;;;;;;;20.38;43.20;101283.72;4921925;28;97073;-70
2024/01/24 04:32:31;;;;;;;1.90;1.05;;;;;;;20.37;43.15;101311.97;4928325;28;97115;-70
2024/01/24 04:34:57;;;;;;;0.93;0.75;;;;;;;20.38;43.08;101300.50;4912902;28;96730;-70
2024/01/24 04:37:22;;;;;;;1.40;0.85;;;;;;;20.39;43.26;101296.06;4925542;28;126599;-70
2024/01/24 04:39:48;;;;;;;1.60;0.73;;;;;;;20.38;43.33;101274.00;4904919;28;126753;-68
2024/01/24 04:42:13;;;;;;;1.58;0.93;;;;;;;20.39;43.44;101296.06;4933907;28;96734;-69
2024/01/24 04:44:38;;;;;;;1.63;1.15;;;;;;;20.39;43.14;101281.03;4931270;28;120522;-69
2024/01/24 04:47:04;;;;;;;1.75;0.52;;;;;;;20.39;43.28;101296.06;4904805;28;98333;-70
2024/01/24 04:49:29;;;;;;;1.80;1.00;;;;;;;20.39;43.15;101306.66;4923583;28;98243;-70
2024/01/24 04:51:54;;;;;;;2.22;0.95;;;;;;;20.40;43.29;101292.50;4904913;28;96765;-70
2024/01/24 04:54:20;;;;;;;1.67;0.70;;;;;;;20.39;43.36;101296.91;4931235;28;97475;-68
2024/01/24 04:56:46;;;;;;;1.98;0.70;;;;;;;20.40;43.41;101295.16;4908368;28;126620;-70
2024/01/24 04:59:18;;;;;;;2.35;1.15;;;;;;;20.40;43.44;101295.16;4923578;28;97193;-70
2024/01/24 05:01:43;;;;;;;1.13;0.80;;;;;;;20.40;43.47;101290.72;4911891;28;96949;-73
2024/01/24 05:04:09;;;;;;;2.30;1.02;;;;;;;20.41;43.45;101283.63;4929890;28;96943;-73
2024/01/24 05:06:35;;;;;;;2.83;1.02;;;;;;;20.41;43.39;101310.13;4940375;28;97814;-70
2024/01/24 05:09:01;;;;;;;1.27;0.60;;;;;;;20.41;43.23;101326.03;4911925;28;97364;-70
2024/01/24 05:11:26;;;;;;;1.40;0.70;;;;;;;20.41;43.30;101318.09;4912305;28;96815;-70
2024/01/24 05:13:53;;;;;;;1.58;1.10;;;;;;;20.40;43.44;101322.53;4929594;28;96779;-70
2024/01/24 05:16:18;;;;;;;0.73;0.40;;;;;;;20.41;43.52;101323.38;4911640;28;96882;-71
2024/01/24 05:18:44;;;;;;;1.30;0.80;;;;;;;20.41;43.40;101344.56;4928654;28;125459;-70
2024/01/24 05:21:09;;;;;;;1.48;0.88;;;;;;;20.41;43.52;101352.53;4912228;28;96709;-70
2024/01/24 05:23:34;;;;;;;3.58;1.00;;;;;;;20.42;43.36;101347.19;4926586;28;109509;-70
2024/01/24 05:26:01;;;;;;;1.52;0.63;;;;;;;20.42;43.26;101346.34;4928873;28;97545;-70
2024/01/24 05:28:26;;;;;;;2.42;0.70;;;;;;;20.43;43.22;101364.00;4928836;28;97275;-70
2024/01/24 05:30:52;;;;;;;2.05;0.90;;;;;;;20.43;43.42;101378.09;4911067;28;106870;-69
2024/01/24 05:33:17;;;;;;;1.67;0.82;;;;;;;20.44;43.59;101352.47;4929079;28;122296;-70
2024/01/24 05:35:43;;;;;;;1.95;0.73;;;;;;;20.43;43.42;101356.91;4923774;28;98544;-70
2024/01/24 05:38:08;;;;;;;3.05;1.35;;;;;;;20.43;43.18;101374.59;4928914;28;96779;-70
2024/01/24 05:40:34;;;;;;;2.70;1.13;;;;;;;20.43;43.35;101350.75;4934129;28;96878;-70
2024/01/24 05:43:01;;;;;;;2.70;0.70;;;;;;;20.44;43.09;101371.03;4936625;28;96777;-69
2024/01/24 05:45:28;;;;;;;2.70;1.30;;;;;;;20.44;43.50;101355.13;4907864;28;97697;-70
2024/01/24 05:47:53;;;;;;;2.17;0.63;;;;;;;20.44;43.17;101368.38;4928841;28;97146;-70
2024/01/24 05:50:18;;;;;;;2.40;1.05;;;;;;;20.44;43.16;101384.28;4928655;28;96736;-70
2024/01/24 05:52:44;;;;;;;3.67;1.20;;;;;;;20.44;43.53;101374.53;4928136;28;98390;-70
2024/01/24 05:55:11;;;;;;;3.47;0.98;;;;;;;20.43;43.23;101370.16;4925206;28;97051;-70
2024/01/24 05:57:40;;;;;;;2.67;1.40;;;;;;;20.44;43.23;101390.44;4921107;28;97355;-70
2024/01/24 06:00:08;;;;;;;1.65;0.90;;;;;;;20.44;43.24;101395.72;4929379;28;97134;-70
2024/01/24 06:02:35;;;;;;;1.52;0.80;;;;;;;20.45;43.29;101400.13;4895419;28;96910;-70
2024/01/24 06:05:01;;;;;;;1.90;0.88;;;;;;;20.45;43.60;101409.88;4923763;28;97332;-70
2024/01/24 06:07:26;;;;;;;2.38;0.70;;;;;;;20.44;43.42;101432.81;4932847;28;99266;-70
2024/01/24 06:09:51;;;;;;;1.67;1.20;;;;;;;20.44;43.49;101443.44;4910349;28;109810;-70
2024/01/24 06:12:17;;;;;;;2.63;1.00;;;;;;;20.45;43.13;101426.63;4910042;28;121924;-70
2024/01/24 06:14:42;;;;;;;2.83;0.82;;;;;;;20.45;43.24;101446.97;4928366;28;97510;-70
2024/01/24 06:17:07;;;;;;;2.92;1.58;;;;;;;20.45;43.16;101428.41;4927232;28;126556;-70
2024/01/24 06:19:33;;;;;;;2.90;0.70;;;;;;;20.45;43.56;101450.50;4923989;28;122770;-70
2024/01/24 06:21:58;;;;;;;2.70;0.73;;;;;;;20.44;43.30;101443.44;4903870;28;120928;-70
2024/01/24 06:24:23;;;;;;;3.80;0.75;;;;;;;20.44;43.48;101459.31;4921862;28;97571;-70
2024/01/24 06:26:49;;;;;;;2.10;0.77;;;;;;;20.45;43.45;101457.56;4918438;28;99279;-70
2024/01/24 06:29:14;;;;;;;3.10;1.30;;;;;;;20.45;43.20;101478.78;4922841;28;97503;-70
2024/01/24 06:31:39;;;;;;;2.67;1.25;;;;;;;20.45;43.15;101482.28;4923980;28;96875;-70
2024/01/24 06:34:05;;;;;;;1.90;0.65;;;;;;;20.45;43.50;101494.66;4903350;28;97291;-70
2024/01/24 06:36:30;;;;;;;2.40;0.70;;;;;;;20.46;43.31;101493.75;4922727;28;121922;-70
2024/01/24 06:38:56;;;;;;;2.33;1.10;;;;;;;20.45;43.20;101499.97;4913404;28;99919;-70
2024/01/24 06:41:21;;;;;;;3.65;0.93;;;;;;;20.45;43.57;101494.66;4916420;28;96765;-70
2024/01/24 06:43:46;;;;;;;2.45;1.00;;;;;;;20.46;43.64;101499.03;4906147;28;106165;-70
2024/01/24 06:46:12;;;;;;;2.72;0.95;;;;;;;20.45;43.30;101507.91;4908061;28;109067;-70
2024/01/24 06:48:37;;;;;;;2.75;0.88;;;;;;;20.46;43.11;101520.25;4912268;28;114682;-69
2024/01/24 06:51:02;;;;;;;2.00;1.05;;;;;;;20.46;43.16;101537.03;4900020;28;96863;-70
2024/01/24 06:53:28;;;;;;;3.00;0.65;;;;;;;20.46;43.58;101554.69;4914012;28;97961;-70
2024/01/24 06:55:56;;;;;;;3.80;1.15;;;;;;;20.46;43.44;101552.03;4918143;28;126499;-70
2024/01/24 06:58:21;;;;;;;3.78;0.90;;;;;;;20.46;43.44;101546.75;4906457;28;97372;-70
2024/01/24 07:00:46;;;;;;;3.42;0.82;;;;;;;20.46;43.56;101589.13;4920092;28;96853;-70
2024/01/24 07:03:12;;;;;;;3.90;1.33;;;;;;;20.47;43.26;101598.84;4901886;28;113081;-70
2024/01/24 07:05:37;;;;;;;2.58;0.95;;;;;;;20.47;43.42;101597.06;4923635;28;97309;-70
2024/01/24 07:08:03;;;;;;;3.15;1.33;;;;;;;20.47;43.43;101586.47;4921554;28;114564;-70
2024/01/24 07:10:28;;;;;;;4.28;1.10;;;;;;;20.47;43.42;101590.91;4922028;28;96774;-70
2024/01/24 07:12:55;;;;;;;4.07;1.00;;;;;;;20.46;43.42;101579.44;4911080;28;126997;-70
2024/01/24 07:15:21;;;;;;;3.65;1.30;;;;;;;20.47;43.27;101586.47;4907802;28;96726;-70
2024/01/24 07:17:46;;;;;;;4.10;1.23;;;;;;;20.48;43.10;101597.94;4924685;28;98010;-70
2024/01/24 07:20:13;;;;;;;4.50;1.13;;;;;;;20.48;43.41;101588.22;4909657;28;96985;-70
2024/01/24 07:22:41;;;;;;;2.88;0.80;;;;;;;20.48;43.22;101606.78;4909658;28;96771;-70
2024/01/24 07:25:07;;;;;;;3.08;0.90;;;;;;;20.48;43.13;101598.84;4926505;28;97329;-70
2024/01/24 07:27:34;;;;;;;2.97;1.13;;;;;;;20.48;43.21;101609.44;4908418;28;98192;-70
2024/01/24 07:30:00;;;;;;;3.25;1.42;;;;;;;20.49;43.20;101618.25;4926298;28;96867;-70
2024/01/24 07:32:27;;;;;;;3.92;1.30;;;;;;;20.48;43.35;101613.84;4910356;28;96782;-70
2024/01/24 07:34:52;;;;;;;3.75;1.30;;;;;;;20.49;43.33;101611.16;4909304;28;99439;-70
2024/01/24 07:37:18;;;;;;;6.15;1.35;;;;;;;20.49;43.18;101621.75;4923716;28;96939;-69
2024/01/24 07:39:43;;;;;;;3.72;1.20;;;;;;;20.49;43.28;101647.41;4902175;28;120690;-70
2024/01/24 07:42:08;;;;;;;3.65;1.02;;;;;;;20.49;43.42;101661.50;4919666;28;99425;-70
2024/01/24 07:44:34;;;;;;;3.38;0.95;;;;;;;20.50;43.24;101662.41;4926327;28;98177;-69
2024/01/24 07:47:01;;;;;;;3.58;1.20;;;;;;;20.50;43.25;101650.03;4924155;28;97351;-70
2024/01/24 07:49:26;;;;;;;6.50;1.60;;;;;;;20.50;43.14;101651.81;4923020;28;96843;-70
2024/01/24 07:51:52;;;;;;;5.47;1.58;;;;;;;20.50;43.33;101649.16;4923365;28;106688;-71
2024/01/24 07:54:17;;;;;;;3.65;1.67;;;;;;;20.49;43.21;101642.97;4906951;28;125666;-70
2024/01/24 07:56:43;;;;;;;4.13;1.60;;;;;;;20.50;43.37;101649.16;4918967;28;96964;-70
2024/01/24 07:59:09;;;;;;;5.32;1.13;;;;;;;20.50;43.47;101671.22;4919566;28;96820;-70
2024/01/24 08:01:34;;;;;;;3.78;1.48;;;;;;;20.50;43.11;101683.63;4924993;28;97234;-70
2024/01/24 08:03:59;;;;;;;6.03;1.38;;;;;;;20.51;43.14;101680.91;4921709;28;125380;-70
2024/01/24 08:06:25;;;;;;;2.92;0.80;;;;;;;20.51;43.11;101688.00;4924616;28;97435;-70
2024/01/24 08:08:50;;;;;;;4.95;1.30;;;;;;;20.51;42.94;101688.00;4924188;28;121743;-69
2024/01/24 08:11:16;;;;;;;5.50;1.20;;;;;;;20.51;43.24;101688.84;4921247;28;98368;-70
2024/01/24 08:13:42;;;;;;;5.15;1.08;;;;;;;20.51;43.24;101688.84;4905432;28;97233;-70
2024/01/24 08:16:08;;;;;;;3.10;1.13;;;;;;;20.51;43.23;101688.84;4921161;28;96850;-70
2024/01/24 08:18:33;;;;;;;3.20;1.40;;;;;;;20.51;43.17;101686.22;4890277;28;100946;-70
2024/01/24 08:20:59;;;;;;;3.20;1.05;;;;;;;20.52;43.32;101701.22;4927758;28;97560;-70
2024/01/24 08:23:24;;;;;;;4.78;1.13;;;;;;;20.52;43.32;101697.72;4909972;28;97236;-70
2024/01/24 08:25:50;;;;;;;4.80;1.20;;;;;;;20.52;43.07;101693.28;4926711;28;96752;-70
2024/01/24 08:28:15;;;;;;;3.88;1.33;;;;;;;20.53;43.09;101707.38;4921927;28;96840;-70
2024/01/24 08:30:41;;;;;;;3.88;1.23;;;;;;;20.53;42.96;101718.91;4923685;28;97377;-69
2024/01/24 08:33:06;;;;;;;4.10;0.93;;;;;;;20.53;43.12;101713.59;4923573;28;96707;-70
2024/01/24 08:35:35;;;;;;;3.83;1.55;;;;;;;20.54;43.24;101714.47;4915190;28;120153;-70
2024/01/24 08:38:01;;;;;;;5.47;1.40;;;;;;;20.53;43.04;101733.91;4920037;28;97329;-70
2024/01/24 08:40:26;;;;;;;5.65;0.90;;;;;;;20.53;42.86;101734.78;4923371;28;97413;-70
2024/01/24 08:42:51;;;;;;;4.70;1.60;;;;;;;20.54;43.22;101743.59;4920581;28;125255;-70
2024/01/24 08:45:17;;;;;;;4.53;1.33;;;;;;;20.54;43.17;101749.78;4919413;28;102491;-69
2024/01/24 08:47:43;;;;;;;5.38;1.45;;;;;;;20.54;43.25;101748.91;4918247;28;96877;-70
2024/01/24 08:50:09;;;;;;;5.28;2.13;;;;;;;20.56;43.28;101755.06;4890199;28;98648;-70
2024/01/24 08:52:35;;;;;;;4.68;1.05;;;;;;;20.56;43.21;101751.53;4923770;28;97896;-69
2024/01/24 08:55:01;;;;;;;4.85;1.40;;;;;;;20.56;43.13;101760.34;4919564;28;97365;-70
2024/01/24 08:57:26;;;;;;;5.03;1.15;;;;;;;20.57;43.21;101766.53;4923567;28;96825;-70
2024/01/24 08:59:53;;;;;;;4.15;1.42;;;;;;;20.57;42.94;101750.63;4917619;28;127182;-70
2024/01/24 09:02:19;;;;;;;5.75;1.33;;;;;;;20.57;42.88;101755.94;4929465;28;96810;-72
2024/01/24 09:04:46;;;;;;;4.40;1.80;;;;;;;20.56;43.15;101755.06;4892669;28;97039;-72
2024/01/24 09:07:14;;;;;;;6.47;2.00;;;;;;;20.57;42.80;101772.72;4922930;28;97126;-71
2024/01/24 09:09:40;;;;;;;8.82;1.95;;;;;;;20.58;42.96;101789.50;4919406;28;97411;-72
2024/01/24 09:12:06;;;;;;;3.47;1.17;;;;;;;20.58;43.13;101802.75;4899585;28;97398;-71
2024/01/24 09:14:31;;;;;;;5.68;1.20;;;;;;;20.58;43.04;101814.22;4903965;28;96859;-72
2024/01/24 09:16:57;;;;;;;4.13;1.40;;;;;;;20.58;43.24;101816.00;4917018;28;98763;-69
2024/01/24 09:19:23;;;;;;;6.38;1.42;;;;;;;20.58;43.02;101798.31;4925058;28;97156;-70
2024/01/24 09:21:48;;;;;;;4.90;1.35;;;;;;;20.59;42.92;101805.38;4923008;28;97998;-69
2024/01/24 09:24:14;;;;;;;5.72;1.70;;;;;;;20.58;43.28;101800.97;4926488;28;96725;-70
2024/01/24 09:26:39;;;;;;;4.65;1.63;;;;;;;20.59;43.17;101801.84;4924866;28;97084;-70
2024/01/24 09:29:04;;;;;;;6.63;1.60;;;;;;;20.60;43.04;101815.06;4926183;28;97370;-70
2024/01/24 09:31:30;;;;;;;5.28;1.75;;;;;;;20.60;43.13;101824.81;4922943;28;118580;-70
2024/01/24 09:33:55;;;;;;;6.40;1.23;;;;;;;20.59;42.92;101831.88;4923180;28;115793;-70
2024/01/24 09:36:23;;;;;;;4.38;1.33;;;;;;;20.60;42.85;101828.31;4922928;28;97080;-69
2024/01/24 09:38:48;;;;;;;6.47;1.88;;;;;;;20.61;43.09;101850.44;4925903;28;97551;-69
2024/01/24 09:41:19;;;;;;;5.57;1.83;;;;;;;20.62;43.09;101862.81;4921032;28;97595;-70
2024/01/24 09:43:47;;;;;;;6.20;2.28;;;;;;;20.61;43.13;101867.22;4926117;28;97510;-70
2024/01/24 09:46:16;;;;;;;7.68;1.80;;;;;;;20.61;43.14;101877.84;4908465;28;96968;-70
2024/01/24 09:48:45;;;;;;;5.82;1.35;;;;;;;20.63;42.84;101891.06;4921927;28;96966;-70
2024/01/24 09:51:11;;;;;;;4.82;2.10;;;;;;;20.63;42.99;101893.72;4915992;28;97678;-69
2024/01/24 09:53:38;;;;;;;5.25;1.33;;;;;;;20.63;42.98;101902.53;4919559;28;97330;-70
2024/01/24 09:56:05;;;;;;;6.80;1.92;;;;;;;20.63;42.74;101880.47;4922378;28;97399;-69
2024/01/24 09:58:30;;;;;;;5.38;1.83;;;;;;;20.63;42.97;101889.28;4919176;28;97021;-70
2024/01/24 10:00:57;;;;;;;5.75;1.70;;;;;;;20.63;42.84;101884.00;4924135;28;121768;-70
2024/01/24 10:03:24;;;;;;;7.75;1.67;;;;;;;20.64;43.08;101908.72;4921051;28;98325;-70
2024/01/24 10:05:51;;;;;;;5.68;1.40;;;;;;;20.64;42.69;101899.00;4921984;28;99202;-70
2024/01/24 10:08:18;;;;;;;5.28;1.90;;;;;;;20.65;42.84;101905.19;4918972;28;98569;-70
2024/01/24 10:10:45;;;;;;;7.05;2.17;;;;;;;20.64;42.98;101906.97;4918467;28;96783;-70
2024/01/24 10:13:11;;;;;;;4.93;1.70;;;;;;;20.65;42.97;101918.44;4924245;28;99223;-70
2024/01/24 10:15:37;;;;;;;6.65;1.85;;;;;;;20.66;42.77;101920.16;4919047;28;96942;-70
2024/01/24 10:18:03;;;;;;;6.60;1.42;;;;;;;20.66;43.11;101913.13;4920446;28;96977;-70
2024/01/24 10:20:28;;;;;;;6.32;1.73;;;;;;;20.66;42.70;101917.53;4917957;28;97459;-70
2024/01/24 10:22:54;;;;;;;7.65;2.38;;;;;;;20.67;42.67;101924.59;4924044;28;96904;-70
2024/01/24 10:25:20;;;;;;;5.78;1.50;;;;;;;20.67;42.64;101936.06;4917253;28;101839;-70
2024/01/24 10:27:46;;;;;;;6.50;2.38;;;;;;;20.67;42.89;101914.84;4917884;28;99908;-70
2024/01/24 10:30:13;;;;;;;7.00;1.63;;;;;;;20.68;42.83;101934.31;4905292;28;99436;-70
2024/01/24 10:32:41;;;;;;;6.10;1.77;;;;;;;20.67;42.69;101949.31;4920020;28;96811;-69
2024/01/24 10:35:08;;;;;;;6.55;2.08;;;;;;;20.68;42.43;101943.13;4920902;28;98565;-70
2024/01/24 10:37:34;;;;;;;7.63;1.98;;;;;;;20.68;42.83;101951.09;4899814;28;97620;-70
2024/01/24 10:40:11;;;;;;;7.30;2.08;;;;;;;20.68;42.55;101932.53;4916793;28;97255;-69
2024/01/24 10:42:40;;;;;;;8.15;1.75;;;;;;;20.68;42.58;101936.97;4923415;28;97077;-70
2024/01/24 10:45:06;;;;;;;5.53;1.70;;;;;;;20.68;42.64;101950.22;4928616;28;96864;-70
2024/01/24 10:47:33;;;;;;;6.47;2.05;;;;;;;20.68;42.87;101964.34;4923421;28;97700;-69
2024/01/24 10:50:03;;;;;;;7.88;2.03;;;;;;;20.69;42.61;101957.25;4915878;28;97510;-70
2024/01/24 10:52:29;;;;;;;6.28;2.13;;;;;;;20.69;42.74;101959.91;4914297;28;96796;-70
2024/01/24 10:54:58;;;;;;;8.98;2.17;;;;;;;20.68;42.47;101972.28;4934454;28;96824;-70
2024/01/24 10:57:24;;;;;;;8.68;2.15;;;;;;;20.69;42.89;101974.03;4913177;28;97299;-70
2024/01/24 10:59:51;;;;;;;6.50;1.63;;;;;;;20.68;42.43;101974.94;4924663;28;98106;-70
2024/01/24 11:02:18;;;;;;;8.55;1.98;;;;;;;20.70;42.79;101966.97;4917519;28;97070;-70
2024/01/24 11:04:45;;;;;;;7.00;2.03;;;;;;;20.70;42.73;101980.22;4907468;28;97710;-69
2024/01/24 11:07:15;;;;;;;6.78;1.52;;;;;;;20.71;42.47;101992.56;4908819;28;98153;-70
2024/01/24 11:09:58;;;;;;;5.35;1.05;;;;;;;20.69;42.40;102000.53;4921636;28;97269;-70
2024/01/24 11:12:23;;;;;;;6.97;2.47;;;;;;;20.69;42.75;101995.25;4920279;28;96897;-70
2024/01/24 11:14:49;;;;;;;4.90;2.05;;;;;;;20.70;42.69;101993.50;4926686;28;96954;-70
2024/01/24 11:17:15;;;;;;;7.07;2.15;;;;;;;20.70;42.81;101988.19;4926407;28;98263;-70